Time;durP1;ratioP1;P1;durP2;ratioP2;P2;SDS_P1;SDS_P2;PMS_P1;PMS_P2;Temp;Humidity;BMP_temperature;BMP_pressure;BME280_temperature;BME280_humidity;BME280_pressure;Samples;Min_cycle;Max_cycle;Signal;HPM_P1;HPM_P2
2022/08/11 00:01:44;;;;;;;10.18;8.00;;;;;;;;;;5009781;28;20438;-81
2022/08/11 00:04:11;;;;;;;11.88;8.65;;;;;;;;;;4990954;28;20557;-81
2022/08/11 00:06:38;;;;;;;11.70;8.45;;;;;;;;;;4992694;28;20053;-80
2022/08/11 00:09:09;;;;;;;7.63;6.65;;;;;;;;;;4992208;28;20064;-81
2022/08/11 00:11:45;;;;;;;6.75;5.78;;;;;;;;;;5009535;28;20053;-81
2022/08/11 00:14:17;;;;;;;6.22;5.32;;;;;;;;;;4991612;28;20053;-80
2022/08/11 00:16:52;;;;;;;7.30;5.15;;;;;;;;;;5010065;28;20057;-81
2022/08/11 00:19:27;;;;;;;7.67;5.20;;;;;;;;;;5008421;28;20121;-81
2022/08/11 00:21:53;;;;;;;6.10;5.00;;;;;;;;;;4972925;28;20458;-81
2022/08/11 00:24:21;;;;;;;11.10;6.80;;;;;;;;;;4990252;28;20484;-81
2022/08/11 00:26:48;;;;;;;7.03;5.07;;;;;;;;;;5008744;28;20045;-81
2022/08/11 00:29:14;;;;;;;7.13;5.75;;;;;;;;;;5008326;28;20718;-80
2022/08/11 00:31:46;;;;;;;9.10;6.82;;;;;;;;;;5010021;28;20038;-80
2022/08/11 00:34:13;;;;;;;5.88;4.88;;;;;;;;;;5007360;28;20057;-80
2022/08/11 00:36:42;;;;;;;7.72;5.43;;;;;;;;;;4996107;28;20056;-81
2022/08/11 00:39:09;;;;;;;6.80;4.55;;;;;;;;;;5009405;28;20526;-80
2022/08/11 00:41:41;;;;;;;5.45;4.13;;;;;;;;;;5009111;28;20890;-81
2022/08/11 00:44:22;;;;;;;3.97;3.40;;;;;;;;;;4992037;28;20451;-80
2022/08/11 00:47:24;;;;;;;5.35;3.40;;;;;;;;;;5009492;28;20112;-80
2022/08/11 00:50:03;;;;;;;4.57;3.08;;;;;;;;;;4947352;28;20082;-80
2022/08/11 00:52:36;;;;;;;3.20;2.72;;;;;;;;;;4948979;28;20888;-81
2022/08/11 00:55:02;;;;;;;3.35;2.90;;;;;;;;;;4951135;29;20122;-80
2022/08/11 00:57:40;;;;;;;3.92;3.00;;;;;;;;;;4951661;29;20556;-81
2022/08/11 01:00:16;;;;;;;4.82;3.05;;;;;;;;;;4952090;29;20058;-80
2022/08/11 01:03:00;;;;;;;6.53;4.45;;;;;;;;;;4952156;29;20150;-81
2022/08/11 01:05:41;;;;;;;8.70;5.50;;;;;;;;;;4951716;29;20150;-82
2022/08/11 01:08:26;;;;;;;8.57;6.32;;;;;;;;;;4951846;29;20051;-81
2022/08/11 01:11:02;;;;;;;6.85;6.15;;;;;;;;;;4950778;28;20089;-81
2022/08/11 01:13:31;;;;;;;7.75;5.55;;;;;;;;;;4952311;29;20146;-81
2022/08/11 01:16:02;;;;;;;8.00;5.55;;;;;;;;;;4951816;29;20047;-81
2022/08/11 01:18:43;;;;;;;8.50;5.63;;;;;;;;;;4951112;29;20059;-81
2022/08/11 01:21:19;;;;;;;9.68;5.22;;;;;;;;;;4939142;29;20369;-81
2022/08/11 01:23:45;;;;;;;;;;;;;;;;;;4971672;28;20527;-81
2022/08/11 01:26:11;;;;;;;9.60;5.78;;;;;;;;;;5008391;28;20457;-81
2022/08/11 01:28:40;;;;;;;7.03;5.50;;;;;;;;;;5012699;28;20050;-81
2022/08/11 01:31:25;;;;;;;7.95;5.97;;;;;;;;;;5010875;28;20046;-81
2022/08/11 01:33:51;;;;;;;7.95;5.30;;;;;;;;;;4994361;28;20376;-81
2022/08/11 01:36:26;;;;;;;6.32;5.32;;;;;;;;;;4993871;28;20184;-81
2022/08/11 01:39:05;;;;;;;8.07;5.20;;;;;;;;;;5012314;28;20045;-81
2022/08/11 01:44:37;;;;;;;5.82;4.55;;;;;;;;;;5012653;28;20046;-81
2022/08/11 01:47:49;;;;;;;3.25;2.30;;;;;;;;;;4994490;28;20042;-81
2022/08/11 01:50:16;;;;;;;2.60;2.20;;;;;;;;;;5005087;28;20077;-81
2022/08/11 01:52:48;;;;;;;4.25;2.70;;;;;;;;;;5011938;28;20037;-81
2022/08/11 01:55:32;;;;;;;3.70;3.03;;;;;;;;;;5010508;28;20499;-81
2022/08/11 01:58:14;;;;;;;4.28;3.17;;;;;;;;;;5010927;28;20161;-81
2022/08/11 02:00:47;;;;;;;5.32;3.97;;;;;;;;;;5012088;28;20049;-82
2022/08/11 02:03:20;;;;;;;5.95;3.90;;;;;;;;;;5010870;28;20042;-81
2022/08/11 02:09:08;;;;;;;7.43;4.70;;;;;;;;;;5011138;28;20042;-81
2022/08/11 02:11:36;;;;;;;5.53;4.30;;;;;;;;;;4994081;28;20042;-81
2022/08/11 02:14:21;;;;;;;6.40;5.07;;;;;;;;;;5010819;28;20431;-81
2022/08/11 02:16:52;;;;;;;7.85;5.03;;;;;;;;;;5011645;28;20050;-81
2022/08/11 02:24:58;;;;;;;10.02;6.20;;;;;;;;;;4999917;28;20046;-82
2022/08/11 02:27:26;;;;;;;8.43;6.32;;;;;;;;;;5010972;28;20046;-81
2022/08/11 02:29:52;;;;;;;9.85;6.47;;;;;;;;;;4994056;28;20068;-81
2022/08/11 02:35:23;;;;;;;8.68;6.88;;;;;;;;;;5011260;28;20054;-81
2022/08/11 02:38:05;;;;;;;12.05;7.15;;;;;;;;;;5010827;28;20468;-81
2022/08/11 02:40:41;;;;;;;11.10;6.88;;;;;;;;;;5011345;28;20073;-81
2022/08/11 02:43:28;;;;;;;9.63;6.88;;;;;;;;;;5010338;28;20145;-82
2022/08/11 02:46:00;;;;;;;10.38;6.35;;;;;;;;;;5002823;28;20065;-81
2022/08/11 02:51:52;;;;;;;11.25;7.07;;;;;;;;;;4993866;28;20053;-81
2022/08/11 02:54:21;;;;;;;10.73;7.10;;;;;;;;;;5010547;28;20121;-81
2022/08/11 02:57:06;;;;;;;10.65;7.32;;;;;;;;;;5010175;28;20037;-81
2022/08/11 02:59:50;;;;;;;10.40;7.68;;;;;;;;;;5010793;28;20487;-81
2022/08/11 03:02:26;;;;;;;11.02;7.32;;;;;;;;;;5010074;28;20042;-81
2022/08/11 03:05:02;;;;;;;9.40;6.18;;;;;;;;;;5010954;28;20054;-81
2022/08/11 03:07:30;;;;;;;;;;;;;;;;;;5010894;28;20046;-82
2022/08/11 03:10:09;;;;;;;6.70;5.78;;;;;;;;;;4992727;28;19925;-81
2022/08/11 03:18:44;;;;;;;4.38;3.97;;;;;;;;;;4947009;28;20054;-81
2022/08/11 03:21:25;;;;;;;4.80;3.50;;;;;;;;;;4968460;28;20051;-81
2022/08/11 03:24:08;;;;;;;5.43;3.75;;;;;;;;;;4968755;28;20065;-81
2022/08/11 03:26:53;;;;;;;6.78;3.00;;;;;;;;;;4968207;28;20055;-81
2022/08/11 03:29:19;;;;;;;2.95;2.60;;;;;;;;;;4969025;28;20046;-81
2022/08/11 03:31:45;;;;;;;3.42;2.60;;;;;;;;;;4968314;28;20053;-81
2022/08/11 03:34:22;;;;;;;3.15;2.50;;;;;;;;;;4968525;28;20464;-81
2022/08/11 03:37:00;;;;;;;4.57;3.05;;;;;;;;;;4952218;28;20082;-81
2022/08/11 03:39:38;;;;;;;8.43;4.20;;;;;;;;;;4968918;28;20061;-81
2022/08/11 03:42:30;;;;;;;6.15;4.63;;;;;;;;;;4951949;28;20051;-81
2022/08/11 03:44:56;;;;;;;7.07;5.13;;;;;;;;;;4946358;28;20059;-81
2022/08/11 03:47:40;;;;;;;5.28;4.65;;;;;;;;;;4967097;28;20089;-81
2022/08/11 03:50:15;;;;;;;5.60;4.63;;;;;;;;;;4951955;28;20061;-81
2022/08/11 03:52:53;;;;;;;5.23;3.80;;;;;;;;;;4982107;28;20495;-81
2022/08/11 03:55:31;;;;;;;5.55;3.15;;;;;;;;;;5001511;28;20045;-81
2022/08/11 03:58:00;;;;;;;5.05;3.30;;;;;;;;;;5009612;28;20053;-81
2022/08/11 04:00:38;;;;;;;4.85;3.58;;;;;;;;;;5010160;28;20384;-81
2022/08/11 04:03:20;;;;;;;5.05;3.53;;;;;;;;;;4991483;28;20064;-81
2022/08/11 04:05:46;;;;;;;4.57;3.75;;;;;;;;;;4992028;28;20085;-81
2022/08/11 04:08:15;;;;;;;4.93;4.07;;;;;;;;;;5009847;28;20075;-81
2022/08/11 04:10:56;;;;;;;9.38;6.35;;;;;;;;;;5009133;28;20042;-81
2022/08/11 04:13:35;;;;;;;8.45;5.97;;;;;;;;;;4992078;28;20057;-81
2022/08/11 04:16:01;;;;;;;7.82;6.10;;;;;;;;;;5009493;28;20069;-81
2022/08/11 04:18:34;;;;;;;6.60;5.32;;;;;;;;;;4991824;28;20125;-81
2022/08/11 04:21:01;;;;;;;6.28;5.10;;;;;;;;;;5009324;28;20046;-81
2022/08/11 04:23:42;;;;;;;5.95;4.90;;;;;;;;;;5010007;28;20046;-81
2022/08/11 04:26:30;;;;;;;9.35;6.72;;;;;;;;;;4990891;28;20056;-81
2022/08/11 04:28:57;;;;;;;8.68;7.03;;;;;;;;;;4988935;28;20066;-81
2022/08/11 04:31:37;;;;;;;11.38;7.28;;;;;;;;;;5013448;28;20175;-81
2022/08/11 04:34:33;;;;;;;8.75;6.82;;;;;;;;;;5012825;28;20446;-81
2022/08/11 04:37:34;;;;;;;7.80;6.65;;;;;;;;;;5013193;28;20045;-81
2022/08/11 04:40:18;;;;;;;10.02;7.00;;;;;;;;;;5012797;28;20049;-81
2022/08/11 04:45:32;;;;;;;8.82;6.18;;;;;;;;;;4994099;28;20396;-81
2022/08/11 05:02:31;;;;;;;15.07;10.07;;;;;;;;;;4991452;28;20487;-81
2022/08/11 05:08:00;;;;;;;16.77;11.57;;;;;;;;;;5013301;28;20069;-81
2022/08/11 05:10:44;;;;;;;23.60;12.75;;;;;;;;;;5012115;28;20521;-84
2022/08/11 05:35:38;;;;;;;12.23;9.18;;;;;;;;;;4994730;28;20382;-84
2022/08/11 05:57:30;;;;;;;15.65;10.43;;;;;;;;;;5011862;28;20495;-84
2022/08/11 06:00:00;;;;;;;15.15;10.65;;;;;;;;;;5011060;28;20049;-84
2022/08/11 06:02:27;;;;;;;16.20;11.02;;;;;;;;;;5011076;28;20053;-83
2022/08/11 06:04:55;;;;;;;18.27;12.40;;;;;;;;;;5012052;28;20061;-84
2022/08/11 06:07:26;;;;;;;18.23;12.00;;;;;;;;;;4994315;28;20050;-84
2022/08/11 06:09:54;;;;;;;15.82;11.38;;;;;;;;;;4994398;28;20074;-83
2022/08/11 06:12:22;;;;;;;16.92;11.60;;;;;;;;;;4994297;28;20050;-84
2022/08/11 06:14:49;;;;;;;16.30;10.98;;;;;;;;;;4993122;28;20115;-83
2022/08/11 06:17:21;;;;;;;17.13;11.43;;;;;;;;;;5011531;28;20391;-89
2022/08/11 06:19:48;;;;;;;16.42;11.02;;;;;;;;;;5011051;28;20404;-87
2022/08/11 06:22:19;;;;;;;15.85;10.77;;;;;;;;;;5011611;28;20046;-84
2022/08/11 06:24:51;;;;;;;15.13;11.15;;;;;;;;;;5012553;28;20124;-83
2022/08/11 06:27:21;;;;;;;14.32;10.15;;;;;;;;;;5008065;28;20053;-84
2022/08/11 06:29:49;;;;;;;15.68;9.45;;;;;;;;;;5011060;28;20446;-83
2022/08/11 06:32:16;;;;;;;15.48;9.88;;;;;;;;;;5011042;28;20053;-83
2022/08/11 06:35:09;;;;;;;11.77;9.00;;;;;;;;;;5011648;28;20065;-83
2022/08/11 06:37:42;;;;;;;11.57;9.05;;;;;;;;;;5010929;28;20359;-83
2022/08/11 06:40:14;;;;;;;13.77;9.18;;;;;;;;;;4992749;28;20407;-83
2022/08/11 06:43:01;;;;;;;13.75;8.52;;;;;;;;;;5010172;28;20129;-83
2022/08/11 06:45:50;;;;;;;12.43;8.77;;;;;;;;;;5010843;28;20092;-83
2022/08/11 06:48:18;;;;;;;15.52;9.95;;;;;;;;;;5010546;28;20673;-84
2022/08/11 06:51:12;;;;;;;15.10;9.07;;;;;;;;;;4992677;28;20078;-83
2022/08/11 06:53:45;;;;;;;13.10;8.70;;;;;;;;;;5010888;28;20049;-83
2022/08/11 07:02:04;;;;;;;12.13;8.32;;;;;;;;;;5011112;28;20049;-83
2022/08/11 07:04:42;;;;;;;10.93;7.45;;;;;;;;;;5010709;28;20046;-83
2022/08/11 07:16:01;;;;;;;10.85;7.70;;;;;;;;;;5009635;28;20038;-82
2022/08/11 07:29:42;;;;;;;10.80;7.28;;;;;;;;;;5010005;28;20046;-84
2022/08/11 07:32:28;;;;;;;10.38;7.32;;;;;;;;;;5009364;28;20052;-83
2022/08/11 07:34:54;;;;;;;;;;;;;;;;;;5009463;28;20053;-84
2022/08/11 07:37:22;;;;;;;11.30;6.82;;;;;;;;;;5010033;28;19921;-84
2022/08/11 07:39:49;;;;;;;9.02;6.50;;;;;;;;;;5010096;28;20104;-83
2022/08/11 07:42:17;;;;;;;9.13;7.10;;;;;;;;;;5007242;28;20521;-83
2022/08/11 07:53:00;;;;;;;9.07;5.80;;;;;;;;;;5010038;28;20046;-82
2022/08/11 07:55:26;;;;;;;9.05;6.93;;;;;;;;;;5009754;28;20092;-89
2022/08/11 08:20:06;;;;;;;;;;;;;;;;;;5025324;28;20042;-84
2022/08/11 08:22:34;;;;;;;5.97;4.68;;;;;;;;;;5014835;28;19921;-86
2022/08/11 08:25:00;;;;;;;6.90;5.15;;;;;;;;;;5015961;28;20495;-84
2022/08/11 08:27:26;;;;;;;8.27;5.43;;;;;;;;;;5016178;28;20042;-83
2022/08/11 08:32:38;;;;;;;5.65;4.40;;;;;;;;;;5015078;28;20096;-87
2022/08/11 08:35:05;;;;;;;7.03;4.13;;;;;;;;;;5013917;28;20034;-84
2022/08/11 08:37:31;;;;;;;5.80;4.05;;;;;;;;;;4998252;28;20041;-84
2022/08/11 08:39:58;;;;;;;5.82;4.50;;;;;;;;;;4997823;28;20065;-86
2022/08/11 08:42:25;;;;;;;4.63;3.97;;;;;;;;;;4998824;28;20050;-85
2022/08/11 08:44:58;;;;;;;6.22;3.83;;;;;;;;;;5015186;28;20125;-85
2022/08/11 08:47:26;;;;;;;4.88;3.58;;;;;;;;;;5015489;28;20053;-85
2022/08/11 08:49:58;;;;;;;6.25;3.85;;;;;;;;;;5014803;28;20054;-85
2022/08/11 08:52:25;;;;;;;5.07;3.78;;;;;;;;;;5014207;28;20449;-85
2022/08/11 08:54:53;;;;;;;5.05;3.90;;;;;;;;;;5015054;28;20048;-85
2022/08/11 08:57:21;;;;;;;5.10;3.40;;;;;;;;;;4997714;28;20045;-85
2022/08/11 08:59:48;;;;;;;5.60;3.35;;;;;;;;;;4998504;28;20057;-85
2022/08/11 09:02:15;;;;;;;5.10;3.35;;;;;;;;;;4998291;28;20046;-85
2022/08/11 09:04:44;;;;;;;6.13;3.65;;;;;;;;;;4998748;28;20136;-85
2022/08/11 09:07:11;;;;;;;6.50;3.60;;;;;;;;;;4998070;28;20054;-85
2022/08/11 09:09:40;;;;;;;6.82;3.45;;;;;;;;;;5014395;28;20103;-85
2022/08/11 09:12:07;;;;;;;3.85;3.45;;;;;;;;;;5014865;28;20045;-85
2022/08/11 09:17:20;;;;;;;3.88;3.38;;;;;;;;;;5011575;28;20053;-83
2022/08/11 09:19:46;;;;;;;8.27;3.80;;;;;;;;;;4994051;28;20070;-84
2022/08/11 09:27:47;;;;;;;6.17;3.17;;;;;;;;;;4991429;28;20423;-83
2022/08/11 09:30:13;;;;;;;3.40;3.10;;;;;;;;;;5006424;28;20935;-85
2022/08/11 09:32:40;;;;;;;5.70;3.20;;;;;;;;;;5011977;28;20034;-85
2022/08/11 09:35:07;;;;;;;4.57;2.90;;;;;;;;;;4993990;28;20466;-83
